createdAt,value
2018-03-07T00:01:08.925Z,58.70
2018-03-07T00:03:34.778Z,55.80
2018-03-07T00:06:00.678Z,66.43
2018-03-07T00:08:26.524Z,57.80
2018-03-07T00:10:52.365Z,58.20
2018-03-07T00:13:18.281Z,56.83
2018-03-07T00:15:44.133Z,63.17
2018-03-07T00:18:09.994Z,52.33
2018-03-07T00:20:35.968Z,59.93
2018-03-07T00:23:01.809Z,60.80
2018-03-07T00:25:27.714Z,60.67
2018-03-07T00:27:53.609Z,57.73
2018-03-07T00:30:19.461Z,62.43
2018-03-07T00:32:45.305Z,60.10
2018-03-07T00:35:11.202Z,64.70
2018-03-07T00:37:37.045Z,52.93
2018-03-07T00:40:02.902Z,65.43
2018-03-07T00:42:28.784Z,58.37
2018-03-07T00:44:54.637Z,48.67
2018-03-07T00:47:20.582Z,56.47
2018-03-07T00:49:46.473Z,58.57
2018-03-07T00:52:12.334Z,55.23
2018-03-07T00:54:38.201Z,56.47
2018-03-07T00:57:04.102Z,50.20
2018-03-07T00:59:29.952Z,53.20
2018-03-07T01:01:55.867Z,54.40
2018-03-07T01:04:21.778Z,59.53
2018-03-07T01:06:47.625Z,56.53
2018-03-07T01:09:13.469Z,61.83
2018-03-07T01:11:39.364Z,48.63
2018-03-07T01:14:05.215Z,44.87
2018-03-07T01:16:31.067Z,60.43
2018-03-07T01:18:56.965Z,48.03
2018-03-07T01:21:22.814Z,42.53
2018-03-07T01:23:48.665Z,48.47
2018-03-07T01:26:14.638Z,58.10
2018-03-07T01:28:40.489Z,45.00
2018-03-07T01:31:06.338Z,52.77
2018-03-07T01:33:32.313Z,44.33
2018-03-07T01:35:58.158Z,57.63
2018-03-07T01:38:24.001Z,57.33
2018-03-07T01:40:49.912Z,56.00
2018-03-07T01:43:15.765Z,54.53
2018-03-07T01:45:41.630Z,45.73
2018-03-07T01:48:07.522Z,50.40
2018-03-07T01:50:33.395Z,52.77
2018-03-07T01:52:59.253Z,54.90
2018-03-07T01:55:25.153Z,50.60
2018-03-07T01:57:51.002Z,44.30
2018-03-07T02:00:16.860Z,50.63
2018-03-07T02:02:42.876Z,59.63
2018-03-07T02:05:08.750Z,55.00
2018-03-07T02:07:34.593Z,53.70
2018-03-07T02:10:00.481Z,45.00
2018-03-07T02:12:26.344Z,63.83
2018-03-07T02:14:52.190Z,54.90
2018-03-07T02:17:18.081Z,56.90
2018-03-07T02:19:43.938Z,44.00
2018-03-07T02:22:09.850Z,63.93
2018-03-07T02:24:35.729Z,49.60
2018-03-07T02:27:01.582Z,45.97
2018-03-07T02:29:27.445Z,58.60
2018-03-07T02:31:53.329Z,60.87
2018-03-07T02:34:19.191Z,51.27
2018-03-07T02:36:45.037Z,59.73
2018-03-07T02:39:10.916Z,57.47
2018-03-07T02:41:36.774Z,65.70
2018-03-07T02:44:02.655Z,66.47
2018-03-07T02:46:28.554Z,61.10
2018-03-07T02:48:54.401Z,53.10
2018-03-07T02:51:20.274Z,58.83
2018-03-07T02:53:46.172Z,57.27
2018-03-07T02:56:12.030Z,73.40
2018-03-07T02:58:37.886Z,54.07
2018-03-07T03:01:03.770Z,47.90
2018-03-07T03:03:29.667Z,65.17
2018-03-07T03:05:55.518Z,63.20
2018-03-07T03:08:21.398Z,56.57
2018-03-07T03:10:47.309Z,59.90
2018-03-07T03:13:13.145Z,66.40
2018-03-07T03:15:39.043Z,62.00
2018-03-07T03:18:04.894Z,67.63
2018-03-07T03:20:30.738Z,71.50
2018-03-07T03:22:56.609Z,64.33
2018-03-07T03:25:22.466Z,66.03
2018-03-07T03:27:48.308Z,60.03
2018-03-07T03:30:14.195Z,63.60
2018-03-07T03:32:40.109Z,65.93
2018-03-07T03:35:05.949Z,61.80
2018-03-07T03:37:31.850Z,58.00
2018-03-07T03:39:57.695Z,63.90
2018-03-07T03:42:23.575Z,64.37
2018-03-07T03:44:49.460Z,59.67
2018-03-07T03:47:15.312Z,60.77
2018-03-07T03:49:41.144Z,65.43
2018-03-07T03:52:07.044Z,60.20
2018-03-07T03:54:32.998Z,60.03
2018-03-07T03:56:58.836Z,63.33
2018-03-07T03:59:24.753Z,67.37
2018-03-07T04:01:50.588Z,67.27
2018-03-07T04:04:16.425Z,53.87
2018-03-07T04:06:42.392Z,66.47
2018-03-07T04:09:08.233Z,54.93
2018-03-07T04:11:34.127Z,68.90
2018-03-07T04:14:00.016Z,64.07
2018-03-07T04:16:25.865Z,68.33
2018-03-07T04:18:51.704Z,65.50
2018-03-07T04:21:17.583Z,68.37
2018-03-07T04:23:43.436Z,62.37
2018-03-07T04:26:09.301Z,67.33
2018-03-07T04:28:35.179Z,66.13
2018-03-07T04:31:01.030Z,64.60
2018-03-07T04:33:26.902Z,65.17
2018-03-07T04:35:52.784Z,66.40
2018-03-07T04:38:18.629Z,68.80
2018-03-07T04:40:44.516Z,67.47
2018-03-07T04:43:10.378Z,65.40
2018-03-07T04:45:36.231Z,68.37
2018-03-07T04:48:02.091Z,60.37
2018-03-07T04:50:28.024Z,68.30
2018-03-07T04:52:53.872Z,68.87
2018-03-07T04:55:19.710Z,70.00
2018-03-07T04:57:45.589Z,63.13
2018-03-07T05:00:11.470Z,63.10
2018-03-07T05:02:37.357Z,67.60
2018-03-07T05:05:03.255Z,62.83
2018-03-07T05:07:29.105Z,55.90
2018-03-07T05:09:54.953Z,65.30
2018-03-07T05:12:20.902Z,59.80
2018-03-07T05:14:46.748Z,67.83
2018-03-07T05:17:12.587Z,55.53
2018-03-07T05:19:38.479Z,58.33
2018-03-07T05:22:04.319Z,65.70
2018-03-07T05:24:30.156Z,68.80
2018-03-07T05:26:56.046Z,67.20
2018-03-07T05:29:21.905Z,66.17
2018-03-07T05:31:47.752Z,65.93
2018-03-07T05:34:13.636Z,63.43
2018-03-07T05:36:39.522Z,68.03
2018-03-07T05:39:05.401Z,63.80
2018-03-07T05:41:31.280Z,65.27
2018-03-07T05:43:57.208Z,64.47
2018-03-07T05:46:23.062Z,66.43
2018-03-07T05:48:48.949Z,70.67
2018-03-07T05:51:14.857Z,65.23
2018-03-07T05:53:40.701Z,67.40
2018-03-07T05:56:06.589Z,70.73
2018-03-07T05:58:32.432Z,69.30
2018-03-07T06:00:58.272Z,62.90
2018-03-07T06:03:24.246Z,67.00
2018-03-07T06:05:50.089Z,66.77
2018-03-07T06:08:15.929Z,69.50
2018-03-07T06:10:41.947Z,61.70
2018-03-07T06:13:07.864Z,61.57
2018-03-07T06:15:33.714Z,60.50
2018-03-07T06:17:59.600Z,59.70
2018-03-07T06:20:25.463Z,60.50
2018-03-07T06:22:51.330Z,57.77
2018-03-07T06:25:17.287Z,58.40
2018-03-07T06:27:43.145Z,59.23
2018-03-07T06:30:09.005Z,58.73
2018-03-07T06:32:34.892Z,59.93
2018-03-07T06:35:00.761Z,57.20
2018-03-07T06:37:26.603Z,60.63
2018-03-07T06:39:52.493Z,56.13
2018-03-07T06:42:20.265Z,52.50
2018-03-07T06:44:46.120Z,57.07
2018-03-07T06:47:12.024Z,55.90
2018-03-07T06:49:37.877Z,54.10
2018-03-07T06:52:03.741Z,55.23
2018-03-07T06:54:29.624Z,56.27
2018-03-07T06:56:55.476Z,57.77
2018-03-07T06:59:21.333Z,55.67
2018-03-07T07:01:47.259Z,54.43
2018-03-07T07:04:13.092Z,54.80
2018-03-07T07:06:38.931Z,54.53
2018-03-07T07:09:04.840Z,54.17
2018-03-07T07:11:30.780Z,54.73
2018-03-07T07:13:56.681Z,50.90
2018-03-07T07:16:22.585Z,51.20
2018-03-07T07:18:48.446Z,51.00
2018-03-07T07:21:14.315Z,51.37
2018-03-07T07:23:40.193Z,50.73
2018-03-07T07:26:06.044Z,50.73
2018-03-07T07:28:31.888Z,50.13
2018-03-07T07:30:57.890Z,49.40
2018-03-07T07:33:23.781Z,51.80
2018-03-07T07:35:49.880Z,45.97
2018-03-07T07:38:15.777Z,52.30
2018-03-07T07:40:41.766Z,51.60
2018-03-07T07:43:07.762Z,49.57
2018-03-07T07:45:33.679Z,52.43
2018-03-07T07:47:59.553Z,46.63
2018-03-07T07:50:25.437Z,47.60
2018-03-07T07:52:51.332Z,47.67
2018-03-07T07:55:17.180Z,40.37
2018-03-07T07:57:43.113Z,50.00
2018-03-07T08:00:09.442Z,43.03
2018-03-07T08:02:35.328Z,43.87
2018-03-07T08:05:01.326Z,43.90
2018-03-07T08:07:27.221Z,43.13
2018-03-07T08:09:53.173Z,44.67
2018-03-07T08:12:19.501Z,43.17
2018-03-07T08:14:45.437Z,42.03
2018-03-07T08:17:11.280Z,43.27
2018-03-07T08:19:37.124Z,42.90
2018-03-07T08:22:03.021Z,43.70
2018-03-07T08:24:29.390Z,42.13
2018-03-07T08:26:55.272Z,40.07
2018-03-07T08:29:21.154Z,37.63
2018-03-07T08:31:46.996Z,38.97
2018-03-07T08:34:12.855Z,37.63
2018-03-07T08:36:39.168Z,35.30
2018-03-07T08:39:05.093Z,40.47
2018-03-07T08:41:30.995Z,36.63
2018-03-07T08:43:56.896Z,40.17
2018-03-07T08:46:22.741Z,41.47
2018-03-07T08:48:48.624Z,39.43
2018-03-07T08:51:14.517Z,40.97
2018-03-07T08:53:40.513Z,42.20
2018-03-07T08:56:06.411Z,41.10
2018-03-07T08:58:32.475Z,39.07
2018-03-07T09:00:58.390Z,40.57
2018-03-07T09:03:24.721Z,41.93
2018-03-07T09:05:50.856Z,39.03
2018-03-07T09:08:16.735Z,38.30
2018-03-07T09:10:42.640Z,41.57
2018-03-07T09:13:08.535Z,40.63
2018-03-07T09:15:34.434Z,37.83
2018-03-07T09:18:00.248Z,37.93
2018-03-07T09:20:26.137Z,38.27
2018-03-07T09:22:52.120Z,40.07
2018-03-07T09:25:17.959Z,38.13
2018-03-07T09:27:43.904Z,38.90
2018-03-07T09:30:09.998Z,38.37
2018-03-07T09:32:35.920Z,38.07
2018-03-07T09:35:01.955Z,37.70
2018-03-07T09:37:27.816Z,36.97
2018-03-07T09:39:53.669Z,37.47
2018-03-07T09:42:19.795Z,36.73
2018-03-07T09:44:45.692Z,37.17
2018-03-07T09:47:11.816Z,36.77
2018-03-07T09:49:37.736Z,34.10
2018-03-07T09:52:03.585Z,38.03
2018-03-07T09:54:29.512Z,35.50
2018-03-07T09:56:55.442Z,34.53
2018-03-07T09:59:21.773Z,32.87
2018-03-07T10:01:47.672Z,32.87
2018-03-07T10:04:13.556Z,32.03
2018-03-07T10:06:39.977Z,33.43
2018-03-07T10:09:05.842Z,33.07
2018-03-07T10:11:31.733Z,31.87
2018-03-07T10:13:57.706Z,31.97
2018-03-07T10:16:23.601Z,29.97
2018-03-07T10:18:49.520Z,31.47
2018-03-07T10:21:15.366Z,30.67
2018-03-07T10:23:41.207Z,31.83
2018-03-07T10:26:07.096Z,30.97
2018-03-07T10:28:32.942Z,29.83
2018-03-07T10:30:58.832Z,30.50
2018-03-07T10:33:26.514Z,31.13
2018-03-07T10:35:52.385Z,30.87
2018-03-07T10:38:18.616Z,30.40
2018-03-07T10:40:44.603Z,29.90
2018-03-07T10:43:10.500Z,31.57
2018-03-07T10:45:36.363Z,29.83
2018-03-07T10:48:02.264Z,30.63
2018-03-07T10:50:28.519Z,31.03
2018-03-07T10:52:54.459Z,28.97
2018-03-07T10:55:20.348Z,32.97
2018-03-07T10:57:46.543Z,30.47
2018-03-07T11:00:12.558Z,29.13
2018-03-07T11:02:38.544Z,27.73
2018-03-07T11:05:04.441Z,31.50
2018-03-07T11:07:30.297Z,33.00
2018-03-07T11:09:56.564Z,32.90
2018-03-07T11:12:22.427Z,32.47
2018-03-07T11:14:48.273Z,31.20
2018-03-07T11:17:14.175Z,33.00
2018-03-07T11:19:40.024Z,32.40
2018-03-07T11:22:06.296Z,30.20
2018-03-07T11:24:32.248Z,31.63
2018-03-07T11:26:58.092Z,30.77
2018-03-07T11:29:23.961Z,31.73
2018-03-07T11:31:49.852Z,33.83
2018-03-07T11:34:15.938Z,32.40
2018-03-07T11:36:41.803Z,31.50
2018-03-07T11:39:07.684Z,32.27
2018-03-07T11:41:33.540Z,31.10
2018-03-07T11:43:59.480Z,32.17
2018-03-07T11:46:25.405Z,31.53
2018-03-07T11:48:51.329Z,30.87
2018-03-07T11:51:17.182Z,30.03
2018-03-07T11:53:43.065Z,31.30
2018-03-07T11:56:08.976Z,30.23
2018-03-07T11:58:34.788Z,30.60
2018-03-07T12:01:00.686Z,29.87
2018-03-07T12:03:26.547Z,30.83
2018-03-07T12:05:52.448Z,32.10
2018-03-07T12:08:18.370Z,30.37
2018-03-07T12:10:44.216Z,31.00
2018-03-07T12:13:10.140Z,29.53
2018-03-07T12:15:36.020Z,31.83
2018-03-07T12:18:01.864Z,29.90
2018-03-07T12:20:27.729Z,30.13
2018-03-07T12:22:53.608Z,30.70
2018-03-07T12:25:20.054Z,30.23
2018-03-07T12:27:45.928Z,29.13
2018-03-07T12:30:11.812Z,28.30
2018-03-07T12:32:37.688Z,27.60
2018-03-07T12:35:03.645Z,29.97
2018-03-07T12:37:29.596Z,29.97
2018-03-07T12:39:55.463Z,29.23
2018-03-07T12:42:21.317Z,30.13
2018-03-07T12:44:47.611Z,30.87
2018-03-07T12:47:13.717Z,32.00
2018-03-07T12:49:39.580Z,30.17
2018-03-07T12:52:05.464Z,29.13
2018-03-07T12:54:31.409Z,29.23
2018-03-07T12:56:57.332Z,28.13
2018-03-07T12:59:23.231Z,29.83
2018-03-07T13:01:49.084Z,29.90
2018-03-07T13:04:14.948Z,30.60
2018-03-07T13:06:40.954Z,30.23
2018-03-07T13:09:07.042Z,29.83
2018-03-07T13:11:32.995Z,31.00
2018-03-07T13:13:58.912Z,29.40
2018-03-07T13:16:24.874Z,30.00
2018-03-07T13:18:50.825Z,33.53
2018-03-07T13:21:16.776Z,30.47
2018-03-07T13:23:42.620Z,30.60
2018-03-07T13:26:08.532Z,31.20
2018-03-07T13:28:34.432Z,30.40
2018-03-07T13:31:00.295Z,31.03
2018-03-07T13:33:26.148Z,30.20
2018-03-07T13:35:52.025Z,26.47
2018-03-07T13:38:17.968Z,27.93
2018-03-07T13:40:43.825Z,28.13
2018-03-07T13:43:09.773Z,30.73
2018-03-07T13:45:35.629Z,27.17
2018-03-07T13:48:01.470Z,30.83
2018-03-07T13:50:27.357Z,27.93
2018-03-07T13:52:53.280Z,28.27
2018-03-07T13:55:19.125Z,32.23
2018-03-07T13:57:45.025Z,28.70
2018-03-07T14:00:10.872Z,30.47
2018-03-07T14:02:36.813Z,30.43
2018-03-07T14:05:02.816Z,32.77
2018-03-07T14:07:28.701Z,32.47
2018-03-07T14:09:54.600Z,33.20
2018-03-07T14:12:20.511Z,32.53
2018-03-07T14:14:46.485Z,34.20
2018-03-07T14:17:12.387Z,32.90
2018-03-07T14:19:38.305Z,32.63
2018-03-07T14:22:04.173Z,34.10
2018-03-07T14:24:30.316Z,32.37
2018-03-07T14:26:56.250Z,34.27
2018-03-07T14:29:22.110Z,33.07
2018-03-07T14:31:47.969Z,34.67
2018-03-07T14:34:13.886Z,33.03
2018-03-07T14:36:39.880Z,34.23
2018-03-07T14:39:05.825Z,34.47
2018-03-07T14:41:31.742Z,35.70
2018-03-07T14:43:57.688Z,33.67
2018-03-07T14:46:23.562Z,35.23
2018-03-07T14:48:49.460Z,33.37
2018-03-07T14:51:15.511Z,34.83
2018-03-07T14:53:41.371Z,35.20
2018-03-07T14:56:07.248Z,34.33
2018-03-07T14:58:33.109Z,35.17
2018-03-07T15:00:59.047Z,36.60
2018-03-07T15:03:24.944Z,34.63
2018-03-07T15:05:50.827Z,38.07
2018-03-07T15:08:16.759Z,38.63
2018-03-07T15:10:43.071Z,37.40
2018-03-07T15:13:08.953Z,38.13
2018-03-07T15:15:34.803Z,37.40
2018-03-07T15:18:00.684Z,38.27
2018-03-07T15:20:26.540Z,37.60
2018-03-07T15:22:52.652Z,35.60
2018-03-07T15:25:18.581Z,39.27
2018-03-07T15:27:44.449Z,36.60
2018-03-07T15:30:10.321Z,36.83
2018-03-07T15:32:36.277Z,37.63
2018-03-07T15:35:02.137Z,37.50
2018-03-07T15:37:27.997Z,38.40
2018-03-07T15:39:53.999Z,34.50
2018-03-07T15:42:19.866Z,36.80
2018-03-07T15:44:45.920Z,38.53
2018-03-07T15:47:11.837Z,39.67
2018-03-07T15:49:37.770Z,39.10
2018-03-07T15:52:03.640Z,40.37
2018-03-07T15:54:29.677Z,41.33
2018-03-07T15:56:55.528Z,38.60
2018-03-07T15:59:21.527Z,38.03
2018-03-07T16:01:47.460Z,37.60
2018-03-07T16:04:13.315Z,37.77
2018-03-07T16:06:39.160Z,35.97
2018-03-07T16:09:05.087Z,38.17
2018-03-07T16:11:31.006Z,37.27
2018-03-07T16:13:56.852Z,37.83
2018-03-07T16:16:22.757Z,37.73
2018-03-07T16:18:48.610Z,38.97
2018-03-07T16:21:14.469Z,38.07
2018-03-07T16:23:40.366Z,37.20
2018-03-07T16:26:06.221Z,39.50
2018-03-07T16:28:32.072Z,38.10
2018-03-07T16:30:57.956Z,36.17
2018-03-07T16:33:23.841Z,38.87
2018-03-07T16:35:49.788Z,40.27
2018-03-07T16:38:15.700Z,37.67
2018-03-07T16:40:41.792Z,38.77
2018-03-07T16:43:07.650Z,40.83
2018-03-07T16:45:33.607Z,40.93
2018-03-07T16:47:59.457Z,40.40
2018-03-07T16:50:25.374Z,40.70
2018-03-07T16:52:51.279Z,40.13
2018-03-07T16:55:17.135Z,38.97
2018-03-07T16:57:43.089Z,39.00
2018-03-07T17:00:08.981Z,42.23
2018-03-07T17:02:34.839Z,42.03
2018-03-07T17:05:00.701Z,40.87
2018-03-07T17:07:27.660Z,41.10
2018-03-07T17:09:53.535Z,42.77
2018-03-07T17:12:19.460Z,43.43
2018-03-07T17:14:45.348Z,41.33
2018-03-07T17:17:11.232Z,44.10
2018-03-07T17:19:37.092Z,43.37
2018-03-07T17:22:03.021Z,45.87
2018-03-07T17:24:29.076Z,46.50
2018-03-07T17:26:54.952Z,42.10
2018-03-07T17:29:20.842Z,46.90
2018-03-07T17:31:46.715Z,45.00
2018-03-07T17:34:12.584Z,46.03
2018-03-07T17:36:38.528Z,47.63
2018-03-07T17:39:04.386Z,44.17
2018-03-07T17:41:30.238Z,48.33
2018-03-07T17:43:56.172Z,43.70
2018-03-07T17:46:22.030Z,45.60
2018-03-07T17:48:47.874Z,46.20
2018-03-07T17:51:13.790Z,47.90
2018-03-07T17:53:39.921Z,48.43
2018-03-07T17:56:05.943Z,47.97
2018-03-07T17:58:31.882Z,48.40
2018-03-07T18:00:57.752Z,46.07
2018-03-07T18:03:23.600Z,50.70
2018-03-07T18:05:49.484Z,47.93
2018-03-07T18:08:15.356Z,48.37
2018-03-07T18:10:41.248Z,47.10
2018-03-07T18:13:07.148Z,48.73
2018-03-07T18:15:33.005Z,46.77
2018-03-07T18:17:58.896Z,48.30
2018-03-07T18:20:24.812Z,52.47
2018-03-07T18:22:50.740Z,48.53
2018-03-07T18:25:16.648Z,47.90
2018-03-07T18:27:42.534Z,50.27
2018-03-07T18:30:08.392Z,50.47
2018-03-07T18:32:34.238Z,51.67
2018-03-07T18:35:00.256Z,48.83
2018-03-07T18:37:26.180Z,51.10
2018-03-07T18:39:52.024Z,53.40
2018-03-07T18:42:17.921Z,52.83
2018-03-07T18:44:43.773Z,51.80
2018-03-07T18:47:09.636Z,54.03
2018-03-07T18:49:35.536Z,56.20
2018-03-07T18:52:01.393Z,59.30
2018-03-07T18:54:27.327Z,58.43
2018-03-07T18:56:53.253Z,52.50
2018-03-07T18:59:19.099Z,56.07
2018-03-07T19:01:44.944Z,47.60
2018-03-07T19:04:11.805Z,53.17
2018-03-07T19:06:37.760Z,54.93
2018-03-07T19:09:03.672Z,54.83
2018-03-07T19:11:29.634Z,55.63
2018-03-07T19:13:55.476Z,56.47
2018-03-07T19:16:21.425Z,50.93
2018-03-07T19:18:47.368Z,54.03
2018-03-07T19:21:13.270Z,57.47
2018-03-07T19:23:39.407Z,56.40
2018-03-07T19:26:05.355Z,56.00
2018-03-07T19:28:31.216Z,52.97
2018-03-07T19:30:57.060Z,53.83
2018-03-07T19:33:23.013Z,55.33
2018-03-07T19:35:48.869Z,55.60
2018-03-07T19:38:14.811Z,57.70
2018-03-07T19:40:40.750Z,56.60
2018-03-07T19:43:06.592Z,57.53
2018-03-07T19:45:32.449Z,57.83
2018-03-07T19:47:58.340Z,58.87
2018-03-07T19:50:24.204Z,58.30
2018-03-07T19:52:50.134Z,56.43
2018-03-07T19:55:16.050Z,58.53
2018-03-07T19:57:42.002Z,57.73
2018-03-07T20:00:08.785Z,60.03
2018-03-07T20:02:34.692Z,57.60
2018-03-07T20:05:00.544Z,56.50
2018-03-07T20:07:26.393Z,57.80
2018-03-07T20:09:52.276Z,53.93
2018-03-07T20:12:18.170Z,56.77
2018-03-07T20:14:44.033Z,57.27
2018-03-07T20:17:09.916Z,54.33
2018-03-07T20:19:35.768Z,57.80
2018-03-07T20:22:01.604Z,55.57
2018-03-07T20:24:27.512Z,55.03
2018-03-07T20:26:53.376Z,58.07
2018-03-07T20:29:19.224Z,58.97
2018-03-07T20:31:45.108Z,56.77
2018-03-07T20:34:10.968Z,57.37
2018-03-07T20:36:36.816Z,61.10
2018-03-07T20:39:02.817Z,57.93
2018-03-07T20:41:28.683Z,63.20
2018-03-07T20:43:54.533Z,59.03
2018-03-07T20:46:20.415Z,61.37
2018-03-07T20:48:46.260Z,64.43
2018-03-07T20:51:12.114Z,60.37
2018-03-07T20:53:38.005Z,62.07
2018-03-07T20:56:03.864Z,60.83
2018-03-07T20:58:29.737Z,58.73
2018-03-07T21:00:55.634Z,50.87
2018-03-07T21:03:21.569Z,57.33
2018-03-07T21:05:47.421Z,59.07
2018-03-07T21:08:13.305Z,61.67
2018-03-07T21:10:39.304Z,55.17
2018-03-07T21:13:05.180Z,61.40
2018-03-07T21:15:31.171Z,62.50
2018-03-07T21:17:57.035Z,64.30
2018-03-07T21:20:22.885Z,61.10
2018-03-07T21:22:48.939Z,63.27
2018-03-07T21:25:14.797Z,67.50
2018-03-07T21:27:40.652Z,56.17
2018-03-07T21:30:06.528Z,58.80
2018-03-07T21:32:32.372Z,59.63
2018-03-07T21:34:58.216Z,64.10
2018-03-07T21:37:24.117Z,59.63
2018-03-07T21:39:49.997Z,60.93
2018-03-07T21:42:15.853Z,63.43
2018-03-07T21:44:41.742Z,55.73
2018-03-07T21:47:07.609Z,62.63
2018-03-07T21:49:33.477Z,60.37
2018-03-07T21:51:59.358Z,62.07
2018-03-07T21:54:25.212Z,62.00
2018-03-07T21:56:51.076Z,61.37
2018-03-07T21:59:16.970Z,58.17
2018-03-07T22:01:42.836Z,59.17
2018-03-07T22:04:08.781Z,61.30
2018-03-07T22:06:34.671Z,63.17
2018-03-07T22:09:00.555Z,56.03
2018-03-07T22:11:26.517Z,61.40
2018-03-07T22:13:52.502Z,57.70
2018-03-07T22:16:18.364Z,62.47
2018-03-07T22:18:44.208Z,63.30
2018-03-07T22:21:10.105Z,66.90
2018-03-07T22:23:36.020Z,63.50
2018-03-07T22:26:01.875Z,57.10
2018-03-07T22:28:27.833Z,59.47
2018-03-07T22:30:53.680Z,57.57
2018-03-07T22:33:19.625Z,60.53
2018-03-07T22:35:45.521Z,61.90
2018-03-07T22:38:11.435Z,61.07
2018-03-07T22:40:37.284Z,52.07
2018-03-07T22:43:03.190Z,57.00
2018-03-07T22:45:29.098Z,61.50
2018-03-07T22:47:55.057Z,56.57
2018-03-07T22:50:20.940Z,58.33
2018-03-07T22:52:46.792Z,59.63
2018-03-07T22:55:12.662Z,62.03
2018-03-07T22:57:38.544Z,59.00
2018-03-07T23:00:04.471Z,59.67
2018-03-07T23:02:30.318Z,61.37
2018-03-07T23:04:56.268Z,67.80
2018-03-07T23:07:22.080Z,63.33
2018-03-07T23:09:47.944Z,63.77
2018-03-07T23:12:13.846Z,66.90
2018-03-07T23:14:39.951Z,67.40
2018-03-07T23:17:05.844Z,59.77
2018-03-07T23:19:32.201Z,63.50
2018-03-07T23:21:58.132Z,63.63
2018-03-07T23:24:24.031Z,60.37
2018-03-07T23:26:50.087Z,57.67
2018-03-07T23:29:16.191Z,60.57
2018-03-07T23:31:42.537Z,66.60
2018-03-07T23:34:08.665Z,66.90
2018-03-07T23:36:34.885Z,68.40
2018-03-07T23:39:00.834Z,62.17
2018-03-07T23:41:26.805Z,64.27
2018-03-07T23:43:52.732Z,57.07
2018-03-07T23:46:18.789Z,69.50
2018-03-07T23:48:45.171Z,68.20
2018-03-07T23:51:11.374Z,67.33
2018-03-07T23:53:37.561Z,65.33
2018-03-07T23:56:03.605Z,61.83
2018-03-07T23:58:29.463Z,68.87
